Powell, Texas
Current Conditions -  °F | °C
As of 10:53 PM on Friday 28 Nov 2014 (Local Time) from KCRS Reporting Station
Clear Clear  
Wind Chill: 58°   Ceiling: Unl
Heat Index: 58°   Visibility: 10mi
Dew Point: 51°   Wind: 10mph
Humidity: 78%   Direction: 190°S
Pressure: 30.05"   Gusts: NA
Location:  32.12°N, 96.32°W
Report Text: KCRS 290453Z AUTO 19009KT 10SM CLR 14/11 A3005 RMK AO2 SLP174 T01440106
Loading
Personal Weather Stations






























Interactive Weather Map New forecast layout! Learn more

10-Day Weather Forecast

Advertisements
Track Severe Weather on mobile